Accueil
METAR-TAF:

METAR-TAF

Aéroports :

Laupheim, Allemagne

latitude: 48-13N, longitude: 009-55E, altitude: 538 m

Observation

Le bulletin a été fait il y a 48 minutes, à 08:20 UTC
Vent 5 kt de ouest
Température 13°C
Humidité 72%
Pression 1032 hPa
Visibilité 10 km ou plus
Quelques nuages à une hauteur de 2000 ft
Nuages fragmentés à une hauteur de 7000 ft

METAR: ETHL 250820Z 28005KT 9999 FEW020 BKN070 13/08 Q1032 BLU BLU

Heure: 11:08 (09:08 UTC)

Prévision

Le bulletin a été fait il y a 1 heure et 45 minutes, à 07:23 UTC
Prévision valable du 25 à 08 UTC au 25 à 17 UTC
Vent 8 kt de ouest/nord-ouest
Visibilité 10 km ou plus
Nuages fragmentés à une hauteur de 8000 ft

TAF: ETHL 250723Z 2508/2517 29008KT 9999 NSW BKN080

Observations et prévisions météorologiques de plus de 4000 aéroports (messages METAR et TAF).

Les stations disponibles sont représentées par des disques jaunes et rouges sur la carte.

Passer la souris dessus pour voir le nom de la station.

Cliquer dessus pour voir les observations et prévisions météorologiques.

Pour changer de carte: cliquez sur les boutons verts avec une croix noire pour zoomer, sur le bouton vert avec un tiret pour effectuer un zoom arrière, ou sur les flèches vertes pour les cartes adjacentes.


METAR-TAF: